createdAt,value
2023-04-16T00:02:31.397Z,10.70
2023-04-16T00:05:34.398Z,11.90
2023-04-16T00:08:37.542Z,13.40
2023-04-16T00:11:40.246Z,12.70
2023-04-16T00:14:43.882Z,12.90
2023-04-16T00:17:46.591Z,15.30
2023-04-16T00:21:31.210Z,17.00
2023-04-16T00:24:33.829Z,15.50
2023-04-16T00:27:36.629Z,17.70
2023-04-16T00:30:45.411Z,17.40
2023-04-16T00:33:48.096Z,19.10
2023-04-16T00:36:50.760Z,14.10
2023-04-16T00:39:53.402Z,12.00
2023-04-16T00:42:56.087Z,13.70
2023-04-16T00:46:18.508Z,16.30
2023-04-16T00:49:21.300Z,15.10
2023-04-16T00:52:24.586Z,12.20
2023-04-16T00:55:27.597Z,9.70
2023-04-16T00:58:30.586Z,12.30
2023-04-16T01:01:33.271Z,12.70
2023-04-16T01:04:40.839Z,15.50
2023-04-16T01:07:43.523Z,11.60
2023-04-16T01:10:46.698Z,12.30
2023-04-16T01:13:49.335Z,11.50
2023-04-16T01:16:51.895Z,17.10
2023-04-16T01:23:40.594Z,9.90
2023-04-16T01:26:43.186Z,9.90
2023-04-16T01:29:59.353Z,9.40
2023-04-16T01:33:02.087Z,10.30
2023-04-16T01:36:13.381Z,10.70
2023-04-16T01:39:16.647Z,8.10
2023-04-16T01:42:26.411Z,7.90
2023-04-16T01:45:29.070Z,9.10
2023-04-16T01:48:31.639Z,11.00
2023-04-16T01:51:34.260Z,12.40
2023-04-16T01:54:36.833Z,11.50
2023-04-16T01:57:39.670Z,12.50
2023-04-16T02:00:42.262Z,10.60
2023-04-16T02:03:45.287Z,11.10
2023-04-16T02:06:48.215Z,12.60
2023-04-16T02:09:53.910Z,9.00
2023-04-16T02:13:10.432Z,8.60
2023-04-16T02:16:13.101Z,9.40
2023-04-16T02:19:16.270Z,9.10
2023-04-16T02:22:18.892Z,9.70
2023-04-16T02:25:22.420Z,8.00
2023-04-16T02:28:25.020Z,7.50
2023-04-16T02:31:28.816Z,9.10
2023-04-16T02:34:31.558Z,8.60
2023-04-16T02:37:34.344Z,10.00
2023-04-16T02:40:37.337Z,10.30
2023-04-16T02:43:40.010Z,9.20
2023-04-16T02:46:42.637Z,7.10
2023-04-16T02:49:45.359Z,7.10
2023-04-16T02:52:48.659Z,9.00
2023-04-16T02:55:55.355Z,9.60
2023-04-16T02:58:57.998Z,8.30
2023-04-16T03:02:00.760Z,7.90
2023-04-16T03:05:04.125Z,8.10
2023-04-16T03:08:07.215Z,8.90
2023-04-16T03:11:09.761Z,10.00
2023-04-16T03:14:12.381Z,7.80
2023-04-16T03:17:14.989Z,8.10
2023-04-16T03:20:33.629Z,8.70
2023-04-16T03:23:36.540Z,10.00
2023-04-16T03:26:39.221Z,10.90
2023-04-16T03:29:41.856Z,9.60
2023-04-16T03:32:44.452Z,9.10
2023-04-16T03:35:57.334Z,9.10
2023-04-16T03:38:59.924Z,10.30
2023-04-16T03:42:03.482Z,8.90
2023-04-16T03:45:11.873Z,8.90
2023-04-16T03:48:14.496Z,7.90
2023-04-16T03:51:17.145Z,8.10
2023-04-16T03:54:22.066Z,10.00
2023-04-16T03:57:25.458Z,10.50
2023-04-16T04:00:28.003Z,8.50
2023-04-16T04:03:31.194Z,8.30
2023-04-16T04:06:33.897Z,8.30
2023-04-16T04:09:36.548Z,10.80
2023-04-16T04:12:39.159Z,9.70
2023-04-16T04:15:41.762Z,8.00
2023-04-16T04:18:44.634Z,6.70
2023-04-16T04:21:54.546Z,8.40
2023-04-16T04:24:57.142Z,9.60
2023-04-16T04:27:59.785Z,9.70
2023-04-16T04:31:02.386Z,8.00
2023-04-16T04:34:05.031Z,7.40
2023-04-16T04:37:07.768Z,7.90
2023-04-16T04:40:10.995Z,9.20
2023-04-16T04:43:13.664Z,9.20
2023-04-16T04:46:16.297Z,8.00
2023-04-16T04:49:18.866Z,8.00
2023-04-16T04:52:21.443Z,7.20
2023-04-16T04:55:24.296Z,8.60
2023-04-16T04:58:28.646Z,9.10
2023-04-16T05:01:31.653Z,7.70
2023-04-16T05:04:34.277Z,7.60
2023-04-16T05:07:36.972Z,6.80
2023-04-16T05:10:39.527Z,7.80
2023-04-16T05:13:54.496Z,7.90
2023-04-16T05:16:57.222Z,7.60
2023-04-16T05:20:00.744Z,7.00
2023-04-16T05:23:32.139Z,7.20
2023-04-16T05:26:34.771Z,6.40
2023-04-16T05:29:42.104Z,6.20
2023-04-16T05:32:44.905Z,4.80
2023-04-16T05:35:47.489Z,3.90
2023-04-16T05:38:50.115Z,4.70
2023-04-16T05:41:53.169Z,5.20
2023-04-16T05:44:55.901Z,5.90
2023-04-16T05:47:58.524Z,4.90
2023-04-16T05:51:02.808Z,4.10
2023-04-16T05:54:05.387Z,4.10
2023-04-16T05:57:08.069Z,4.50
2023-04-16T06:00:11.040Z,6.20
2023-04-16T06:03:13.995Z,4.10
2023-04-16T06:06:16.675Z,4.00
2023-04-16T06:09:19.256Z,4.50
2023-04-16T06:12:21.831Z,5.30
2023-04-16T06:15:24.401Z,4.90
2023-04-16T06:18:27.003Z,3.90
2023-04-16T06:21:29.827Z,3.10
2023-04-16T06:24:32.490Z,4.00
2023-04-16T06:27:35.078Z,4.60
2023-04-16T06:30:37.701Z,4.50
2023-04-16T06:33:40.720Z,3.40
2023-04-16T06:36:43.371Z,3.20
2023-04-16T06:39:51.207Z,4.10
2023-04-16T06:42:54.038Z,5.00
2023-04-16T06:45:56.685Z,4.60
2023-04-16T06:48:59.393Z,2.60
2023-04-16T06:52:03.786Z,2.40
2023-04-16T06:55:09.856Z,2.70
2023-04-16T06:58:12.616Z,2.80
2023-04-16T07:01:15.356Z,3.90
2023-04-16T07:04:18.069Z,2.30
2023-04-16T07:07:21.038Z,3.00
2023-04-16T07:10:23.801Z,3.10
2023-04-16T07:13:26.549Z,3.00
2023-04-16T07:16:29.277Z,3.50
2023-04-16T07:19:32.887Z,3.30
2023-04-16T07:22:35.968Z,3.00
2023-04-16T07:25:38.608Z,3.40
2023-04-16T07:28:41.411Z,3.80
2023-04-16T07:31:45.436Z,2.70
2023-04-16T07:34:48.254Z,2.40
2023-04-16T07:37:50.948Z,3.10
2023-04-16T07:40:53.716Z,3.30
2023-04-16T07:43:56.633Z,5.40
2023-04-16T07:46:59.379Z,4.10
2023-04-16T07:50:02.098Z,4.60
2023-04-16T07:53:07.603Z,4.10
2023-04-16T07:56:10.476Z,5.20
2023-04-16T07:59:21.872Z,7.30
2023-04-16T08:02:26.576Z,5.30
2023-04-16T08:05:29.450Z,5.00
2023-04-16T08:08:32.213Z,5.70
2023-04-16T08:11:35.243Z,6.10
2023-04-16T08:14:37.878Z,6.80
2023-04-16T08:17:44.749Z,5.00
2023-04-16T08:20:48.097Z,5.40
2023-04-16T08:23:51.803Z,4.90
2023-04-16T08:27:17.895Z,5.30
2023-04-16T08:30:22.445Z,6.30
2023-04-16T08:33:25.945Z,5.40
2023-04-16T08:36:43.610Z,4.00
2023-04-16T08:43:10.319Z,5.80
2023-04-16T08:46:13.696Z,6.50
2023-04-16T08:49:20.563Z,4.80
2023-04-16T08:52:23.970Z,4.30
2023-04-16T08:55:35.984Z,4.60
2023-04-16T08:58:42.822Z,4.30
2023-04-16T09:01:46.713Z,4.00
2023-04-16T09:04:51.820Z,3.30
2023-04-16T09:07:54.872Z,2.90
2023-04-16T09:10:57.861Z,3.40
2023-04-16T09:14:01.105Z,4.20
2023-04-16T09:17:06.553Z,4.20
2023-04-16T09:20:11.080Z,3.30
2023-04-16T09:23:13.855Z,2.50
2023-04-16T09:26:16.904Z,2.40
2023-04-16T09:29:39.570Z,3.20
2023-04-16T09:32:42.322Z,3.30
2023-04-16T09:35:52.750Z,2.50
2023-04-16T09:38:57.520Z,2.60
2023-04-16T09:42:00.982Z,3.50
2023-04-16T09:45:06.053Z,3.60
2023-04-16T09:48:09.034Z,3.50
2023-04-16T09:51:11.724Z,2.40
2023-04-16T09:54:14.517Z,3.00
2023-04-16T09:57:24.960Z,2.80
2023-04-16T10:00:29.694Z,3.60
2023-04-16T10:03:34.825Z,3.00
2023-04-16T10:06:37.849Z,2.20
2023-04-16T10:09:40.922Z,2.20
2023-04-16T10:12:43.847Z,1.90
2023-04-16T10:15:46.770Z,2.50
2023-04-16T10:18:49.560Z,2.90
2023-04-16T10:21:52.658Z,1.60
2023-04-16T10:24:56.175Z,1.70
2023-04-16T10:27:59.584Z,1.80
2023-04-16T10:31:05.666Z,2.40
2023-04-16T10:34:10.135Z,2.30
2023-04-16T10:37:13.113Z,2.10
2023-04-16T10:40:29.211Z,2.20
2023-04-16T10:43:39.124Z,3.00
2023-04-16T10:46:54.980Z,3.10
2023-04-16T10:49:58.342Z,3.50
2023-04-16T10:53:22.733Z,2.20
2023-04-16T10:56:27.758Z,2.40
2023-04-16T10:59:32.306Z,2.30
2023-04-16T11:02:35.268Z,2.60
2023-04-16T11:05:47.143Z,2.90
2023-04-16T11:08:55.004Z,1.90
2023-04-16T11:12:12.868Z,1.70
2023-04-16T11:15:17.202Z,2.10
2023-04-16T11:18:20.243Z,2.50
2023-04-16T11:21:23.629Z,2.60
2023-04-16T11:24:30.920Z,3.40
2023-04-16T11:27:43.933Z,2.50
2023-04-16T11:30:49.246Z,2.50
2023-04-16T11:33:51.959Z,2.80
2023-04-16T11:36:54.713Z,2.70
2023-04-16T11:39:57.414Z,2.80
2023-04-16T11:43:05.237Z,2.90
2023-04-16T11:46:24.005Z,1.80
2023-04-16T11:49:30.321Z,1.90
2023-04-16T11:52:33.944Z,1.60
2023-04-16T11:55:45.562Z,2.00
2023-04-16T11:59:09.227Z,1.80
2023-04-16T12:02:14.329Z,1.10
2023-04-16T12:05:39.164Z,1.40
2023-04-16T12:08:54.904Z,1.80
2023-04-16T12:12:02.725Z,2.00
2023-04-16T12:15:09.098Z,6.40
2023-04-16T12:18:16.365Z,1.20
2023-04-16T12:21:20.678Z,1.60
2023-04-16T12:24:32.637Z,1.50
2023-04-16T12:27:54.300Z,1.50
2023-04-16T12:30:57.793Z,2.00
2023-04-16T12:34:03.698Z,1.10
2023-04-16T12:37:11.050Z,1.20
2023-04-16T12:40:13.869Z,1.70
2023-04-16T12:43:17.045Z,1.50
2023-04-16T12:46:19.874Z,1.80
2023-04-16T12:49:26.667Z,1.00
2023-04-16T12:52:37.177Z,0.90
2023-04-16T12:55:39.868Z,1.40
2023-04-16T12:58:44.615Z,2.40
2023-04-16T13:01:48.750Z,7.30
2023-04-16T13:32:02.427Z,1.00
2023-04-16T13:32:17.016Z,1.40
2023-04-16T13:35:19.827Z,1.50
2023-04-16T13:38:29.015Z,1.60
2023-04-16T13:46:37.467Z,1.20
2023-04-16T15:30:33.089Z,1.30
2023-04-16T15:37:47.741Z,1.10
2023-04-16T15:41:03.057Z,1.50
2023-04-16T15:44:22.784Z,0.90
2023-04-16T15:47:49.859Z,1.00
2023-04-16T15:51:07.206Z,0.90
2023-04-16T15:54:19.064Z,1.40
2023-04-16T15:57:21.737Z,1.70
2023-04-16T16:00:24.681Z,1.30
2023-04-16T16:03:27.601Z,1.70
2023-04-16T16:06:31.604Z,0.60
2023-04-16T16:09:36.658Z,0.80
2023-04-16T16:12:40.730Z,1.40
2023-04-16T16:15:46.839Z,2.80
2023-04-16T16:18:49.524Z,2.00
2023-04-16T16:21:52.105Z,1.10
2023-04-16T16:24:56.489Z,1.10
2023-04-16T16:27:59.583Z,1.10
2023-04-16T16:31:03.909Z,1.70
2023-04-16T16:34:06.575Z,1.80
2023-04-16T16:37:33.075Z,1.70
2023-04-16T16:40:38.117Z,1.10
2023-04-16T16:43:40.947Z,0.70
2023-04-16T16:46:43.664Z,1.20
2023-04-16T16:49:46.481Z,1.80
2023-04-16T16:52:50.241Z,1.90
2023-04-16T16:55:52.914Z,2.10
2023-04-16T16:58:56.103Z,1.00
2023-04-16T17:02:00.897Z,0.90
2023-04-16T17:09:42.080Z,1.70
2023-04-16T17:22:15.899Z,1.90
2023-04-16T19:50:29.124Z,4.10
2023-04-16T19:53:34.210Z,4.30
2023-04-16T19:56:46.055Z,4.40
2023-04-16T20:00:00.475Z,3.60
2023-04-16T20:03:04.464Z,3.40
2023-04-16T20:06:08.123Z,3.80
2023-04-16T20:09:12.542Z,4.20
2023-04-16T20:12:21.273Z,4.40
2023-04-16T20:15:24.506Z,4.30
2023-04-16T20:18:28.953Z,3.60
2023-04-16T20:21:32.132Z,3.50
2023-04-16T20:24:34.854Z,4.30
2023-04-16T20:27:39.193Z,4.50
2023-04-16T20:30:42.154Z,5.20
2023-04-16T20:33:44.910Z,4.10
2023-04-16T20:36:50.140Z,4.30
2023-04-16T20:39:54.299Z,4.70
2023-04-16T20:42:59.957Z,5.50
2023-04-16T20:46:03.191Z,7.00
2023-04-16T20:49:07.721Z,5.50
2023-04-16T20:52:10.520Z,5.30
2023-04-16T20:55:13.256Z,6.40
2023-04-16T20:58:17.116Z,6.80
2023-04-16T21:01:20.760Z,9.00
2023-04-16T21:04:23.737Z,7.10
2023-04-16T21:07:27.533Z,6.40
2023-04-16T21:10:31.052Z,6.70
2023-04-16T21:13:33.795Z,8.00
2023-04-16T21:16:36.557Z,9.80
2023-04-16T21:19:43.765Z,7.00
2023-04-16T21:22:46.522Z,6.00
2023-04-16T21:25:49.190Z,6.60
2023-04-16T21:28:54.565Z,7.70
2023-04-16T21:31:57.990Z,9.30
2023-04-16T21:35:00.973Z,6.40
2023-04-16T21:38:03.649Z,6.80
2023-04-16T21:41:08.887Z,7.60
2023-04-16T21:44:11.633Z,8.60
2023-04-16T21:47:17.507Z,9.10
2023-04-16T21:50:23.945Z,6.70
2023-04-16T21:53:34.128Z,6.80
2023-04-16T21:56:37.463Z,6.30
2023-04-16T21:59:41.006Z,6.90
2023-04-16T22:02:46.231Z,8.50
2023-04-16T22:05:52.690Z,6.20
2023-04-16T22:08:59.008Z,5.60
2023-04-16T22:12:02.160Z,5.50
2023-04-16T22:15:07.476Z,7.00
2023-04-16T22:18:10.759Z,7.80
2023-04-16T22:21:14.087Z,4.90
2023-04-16T22:24:20.961Z,4.50
2023-04-16T22:27:29.685Z,5.80
2023-04-16T22:30:35.132Z,5.60
2023-04-16T22:33:39.043Z,6.10
2023-04-16T22:36:48.442Z,4.60
2023-04-16T22:39:51.854Z,5.50
2023-04-16T22:42:55.100Z,4.70
2023-04-16T22:46:08.586Z,4.50
2023-04-16T22:54:42.193Z,3.30
